Time;durP1;ratioP1;P1;durP2;ratioP2;P2;SDS_P1;SDS_P2;PMS_P1;PMS_P2;Temp;Humidity;BMP_temperature;BMP_pressure;BME280_temperature;BME280_humidity;BME280_pressure;Samples;Min_cycle;Max_cycle;Signal;HPM_P1;HPM_P2
2024/03/10 00:04:04;;;;;;;1999.90;999.90;;;;;;;7.96;80.79;99766.56;10454825;28;20102;-67
2024/03/10 00:09:07;;;;;;;1999.90;999.90;;;;;;;7.90;79.75;99765.19;10454693;28;20124;-67
2024/03/10 00:14:10;;;;;;;1999.90;999.90;;;;;;;7.82;80.03;99757.81;10455573;28;20128;-66
2024/03/10 00:19:13;;;;;;;1999.90;999.90;;;;;;;7.71;81.82;99760.25;10454447;28;20485;-67
2024/03/10 00:24:16;;;;;;;1999.90;999.90;;;;;;;7.76;82.52;99752.97;10453940;28;20524;-66
2024/03/10 00:29:18;;;;;;;1999.90;999.90;;;;;;;8.04;80.43;99740.84;10455657;28;20052;-67
2024/03/10 00:34:20;;;;;;;1999.90;999.90;;;;;;;8.31;79.08;99748.66;10455520;28;20132;-67
2024/03/10 00:39:23;;;;;;;1999.90;999.90;;;;;;;8.20;78.07;99756.31;10463230;28;20098;-67
2024/03/10 00:44:26;;;;;;;1999.90;999.90;;;;;;;8.15;78.19;99761.00;10445656;28;20513;-67
2024/03/10 00:49:28;;;;;;;1999.90;999.90;;;;;;;8.35;78.57;99750.16;10462961;28;20052;-67
2024/03/10 00:54:32;;;;;;;1999.90;999.90;;;;;;;7.88;80.06;99742.75;10445680;28;20059;-67
2024/03/10 00:59:34;;;;;;;1999.90;999.90;;;;;;;7.77;81.36;99743.41;10462566;28;20131;-66
2024/03/10 01:04:36;;;;;;;1999.90;999.90;;;;;;;7.77;79.13;99746.03;10445214;28;20049;-67
2024/03/10 01:09:39;;;;;;;1999.90;999.90;;;;;;;7.93;80.10;99741.50;10462417;28;20045;-67
2024/03/10 01:14:41;;;;;;;1999.90;999.90;;;;;;;7.58;80.66;99735.88;10461037;28;20056;-66
2024/03/10 01:19:44;;;;;;;1999.90;999.90;;;;;;;7.44;81.46;99740.19;10461676;28;20401;-67
2024/03/10 01:24:47;;;;;;;1999.90;999.90;;;;;;;7.65;80.89;99726.78;10460325;28;20053;-67
2024/03/10 01:29:50;;;;;;;1999.90;999.90;;;;;;;7.40;82.05;99722.25;10461347;28;20049;-67
2024/03/10 01:34:53;;;;;;;1999.90;999.90;;;;;;;7.52;82.32;99718.06;10460143;28;20052;-66
2024/03/10 01:39:55;;;;;;;1999.90;999.90;;;;;;;7.44;82.23;99711.53;10460759;28;20132;-67
2024/03/10 01:44:59;;;;;;;1999.90;999.90;;;;;;;7.73;81.67;99714.13;10460844;28;20129;-66
2024/03/10 01:50:06;;;;;;;1999.90;999.90;;;;;;;7.51;82.53;99698.13;10458778;28;20045;-66
2024/03/10 01:55:11;;;;;;;1999.90;999.90;;;;;;;7.73;82.79;99708.06;10459601;28;20049;-67
2024/03/10 02:00:14;;;;;;;1999.90;999.90;;;;;;;7.69;82.85;99710.03;10459172;28;20492;-66
2024/03/10 02:05:17;;;;;;;1999.90;999.90;;;;;;;7.86;82.21;99689.88;10459221;28;20056;-66
2024/03/10 02:10:19;;;;;;;1999.90;999.90;;;;;;;8.03;80.04;99691.41;10459967;28;20044;-66
2024/03/10 02:15:22;;;;;;;1999.90;999.90;;;;;;;8.11;78.64;99691.75;10459775;28;20480;-67
2024/03/10 02:20:26;;;;;;;1999.90;999.90;;;;;;;7.76;78.80;99687.03;10459575;28;20065;-67
2024/03/10 02:25:35;;;;;;;1999.90;999.90;;;;;;;7.89;78.27;99685.31;10441532;28;20494;-67
2024/03/10 02:30:54;;;;;;;1999.90;999.90;;;;;;;7.89;78.54;99664.47;10458079;28;20132;-66
2024/03/10 02:47:12;;;;;;;1999.90;999.90;;;;;;;7.73;80.63;99668.97;10457805;28;20537;-67
2024/03/10 02:52:06;;;;;;;1999.90;999.90;;;;;;;7.84;80.44;99656.09;10458197;28;20059;-67
2024/03/10 02:57:08;;;;;;;1999.90;999.90;;;;;;;7.91;81.72;99654.75;10456985;28;20045;-66
2024/03/10 03:02:11;;;;;;;1999.90;999.90;;;;;;;7.72;81.24;99651.69;10457917;28;20161;-66
2024/03/10 03:07:17;;;;;;;1999.90;999.90;;;;;;;7.85;80.84;99655.19;10457609;28;20045;-66
2024/03/10 03:12:20;;;;;;;1999.90;999.90;;;;;;;7.62;82.74;99641.00;10456456;28;20486;-67
2024/03/10 03:17:24;;;;;;;1999.90;999.90;;;;;;;7.69;79.75;99644.06;10457185;28;20140;-67
2024/03/10 03:22:26;;;;;;;1999.90;999.90;;;;;;;7.68;80.97;99647.59;10457237;28;20136;-66
2024/03/10 03:27:29;;;;;;;1999.90;999.90;;;;;;;7.32;80.77;99635.97;10456809;28;20045;-66
2024/03/10 03:32:32;;;;;;;1999.90;999.90;;;;;;;7.67;82.58;99632.91;10456953;28;20055;-67
2024/03/10 03:37:34;;;;;;;1999.90;999.90;;;;;;;7.32;80.97;99613.34;10456513;28;20044;-67
2024/03/10 03:42:36;;;;;;;1999.90;999.90;;;;;;;6.80;84.63;99617.41;10456590;28;20056;-66
2024/03/10 03:47:39;;;;;;;1999.90;999.90;;;;;;;7.13;83.22;99610.22;10456215;28;20481;-67
2024/03/10 03:52:42;;;;;;;1999.90;999.90;;;;;;;7.13;83.04;99621.47;10455982;28;20083;-67
2024/03/10 03:57:45;;;;;;;1999.90;999.90;;;;;;;6.73;83.85;99613.50;10455010;28;20076;-66
2024/03/10 04:02:47;;;;;;;1999.90;999.90;;;;;;;6.56;85.44;99611.09;10454579;28;20136;-66
2024/03/10 04:07:50;;;;;;;1999.90;999.90;;;;;;;6.18;88.09;99604.59;10456386;28;20043;-66
2024/03/10 04:12:53;;;;;;;1999.90;999.90;;;;;;;6.00;87.79;99603.06;10454013;28;20460;-66
2024/03/10 04:17:55;;;;;;;1999.90;999.90;;;;;;;5.95;89.33;99593.75;10455454;28;20072;-66
2024/03/10 04:22:59;;;;;;;1999.90;999.90;;;;;;;5.90;90.46;99589.72;10455578;28;20049;-67
2024/03/10 04:28:01;;;;;;;1999.90;999.90;;;;;;;5.93;90.15;99592.16;10455266;28;20075;-66
2024/03/10 04:33:04;;;;;;;1999.90;999.90;;;;;;;5.81;89.23;99590.25;10455395;28;20127;-66
2024/03/10 04:38:06;;;;;;;1999.90;999.90;;;;;;;6.07;88.70;99588.78;10455468;28;20052;-66
2024/03/10 04:43:09;;;;;;;1999.90;999.90;;;;;;;6.18;85.65;99580.38;10437563;28;20049;-66
2024/03/10 04:48:12;;;;;;;1999.90;999.90;;;;;;;6.38;84.95;99580.03;10455375;28;20076;-66
2024/03/10 04:53:14;;;;;;;1999.90;999.90;;;;;;;6.56;84.87;99572.91;10437207;28;20055;-66
2024/03/10 04:58:17;;;;;;;1999.90;999.90;;;;;;;6.56;84.79;99570.31;10453632;28;20490;-67
2024/03/10 05:03:20;;;;;;;1999.90;999.90;;;;;;;6.07;87.92;99561.06;10436934;28;20433;-66
2024/03/10 05:08:23;;;;;;;1999.90;999.90;;;;;;;6.02;89.41;99570.03;10454816;28;20047;-67
2024/03/10 05:13:26;;;;;;;1999.90;999.90;;;;;;;5.77;90.92;99567.06;10454509;28;20049;-66
2024/03/10 05:18:28;;;;;;;1999.90;999.90;;;;;;;5.70;91.15;99562.28;10454218;28;20045;-66
2024/03/10 05:23:32;;;;;;;1999.90;999.90;;;;;;;5.85;90.80;99566.63;10457383;28;20048;-67
2024/03/10 05:28:34;;;;;;;1999.90;999.90;;;;;;;5.81;90.20;99566.88;10444222;28;20045;-66
2024/03/10 05:33:37;;;;;;;1999.90;999.90;;;;;;;5.73;93.29;99562.97;10461714;28;20059;-67
2024/03/10 05:38:39;;;;;;;1999.90;999.90;;;;;;;5.74;92.82;99551.66;10461121;28;20405;-66
2024/03/10 05:43:42;;;;;;;1999.90;999.90;;;;;;;5.68;93.74;99553.75;10461184;28;20053;-66
2024/03/10 05:48:45;;;;;;;1999.90;999.90;;;;;;;5.74;91.96;99566.41;10460875;28;20083;-67
2024/03/10 05:53:47;;;;;;;1999.90;999.90;;;;;;;5.81;93.94;99557.31;10459482;28;20049;-67
2024/03/10 05:58:50;;;;;;;1999.90;999.90;;;;;;;5.77;93.86;99543.69;10460382;28;20041;-67
2024/03/10 06:03:53;;;;;;;1999.90;999.90;;;;;;;5.37;95.22;99545.94;10460275;28;20051;-67
2024/03/10 06:08:56;;;;;;;1999.90;999.90;;;;;;;5.36;94.42;99549.47;10459495;28;20091;-67
2024/03/10 06:13:58;;;;;;;1999.90;999.90;;;;;;;5.34;92.54;99540.91;10460179;28;20204;-67
2024/03/10 06:29:25;;;;;;;1999.90;999.90;;;;;;;5.42;91.19;99565.63;10459336;28;20128;-67
2024/03/10 06:34:29;;;;;;;1999.90;999.90;;;;;;;5.55;92.18;99554.47;10458967;28;20053;-67
2024/03/10 06:39:31;;;;;;;1999.90;999.90;;;;;;;5.42;90.55;99552.66;10423208;23;20061;-68
2024/03/10 06:44:34;;;;;;;1999.90;999.90;;;;;;;5.53;92.84;99571.03;10417601;28;20055;-68
2024/03/10 06:49:37;;;;;;;1999.90;999.90;;;;;;;5.87;90.98;99569.16;10416243;28;20505;-68
2024/03/10 06:54:39;;;;;;;1999.90;999.90;;;;;;;5.79;93.23;99579.13;10417396;28;20056;-68
2024/03/10 06:59:42;;;;;;;1999.90;999.90;;;;;;;5.68;92.82;99572.78;10416944;28;20052;-68
2024/03/10 07:04:45;;;;;;;1999.90;999.90;;;;;;;5.92;93.46;99573.13;10415535;28;20057;-68
2024/03/10 07:09:48;;;;;;;1999.90;999.90;;;;;;;5.98;92.44;99566.78;10416521;28;20125;-68
2024/03/10 07:14:52;;;;;;;1999.90;999.90;;;;;;;5.97;92.91;99567.72;10416530;28;20069;-68
2024/03/10 07:19:55;;;;;;;1999.90;999.90;;;;;;;6.14;93.31;99569.34;10414774;28;20398;-68
2024/03/10 07:24:57;;;;;;;1999.90;999.90;;;;;;;6.43;89.55;99577.16;10415887;28;20081;-68
2024/03/10 07:29:59;;;;;;;1999.90;999.90;;;;;;;6.75;86.54;99583.03;10415989;28;20048;-68
2024/03/10 07:35:03;;;;;;;1999.90;999.90;;;;;;;7.13;84.15;99594.59;10415996;28;20056;-68
2024/03/10 07:40:15;;;;;;;1999.90;999.90;;;;;;;7.23;85.39;99598.31;10415281;28;20060;-68
2024/03/10 07:45:18;;;;;;;1999.90;999.90;;;;;;;7.56;84.97;99605.75;10415049;28;20057;-68
2024/03/10 07:50:20;;;;;;;1999.90;999.90;;;;;;;7.89;83.81;99595.88;10413891;28;20045;-68
2024/03/10 07:55:23;;;;;;;1999.90;999.90;;;;;;;8.70;81.97;99598.25;10415194;28;20053;-68
2024/03/10 08:00:26;;;;;;;1999.90;999.90;;;;;;;9.15;79.18;99607.41;10413440;28;20053;-68
2024/03/10 08:05:29;;;;;;;1999.90;999.90;;;;;;;8.53;79.82;99603.81;10413836;28;20111;-68
2024/03/10 08:10:33;;;;;;;1999.90;999.90;;;;;;;8.32;80.83;99603.44;10414772;28;20045;-68
2024/03/10 08:15:36;;;;;;;1999.90;999.90;;;;;;;8.59;79.96;99600.78;10414726;28;20053;-68
2024/03/10 08:20:40;;;;;;;1999.90;999.90;;;;;;;8.49;80.83;99605.78;10414429;28;20053;-69
2024/03/10 08:25:45;;;;;;;1999.90;999.90;;;;;;;8.54;78.89;99601.09;10414426;28;20479;-68
2024/03/10 08:30:49;;;;;;;1999.90;999.90;;;;;;;8.93;78.76;99608.91;10414295;28;20605;-68
2024/03/10 08:35:53;;;;;;;1999.90;999.90;;;;;;;9.08;79.04;99601.78;10414368;28;20449;-69
2024/03/10 08:40:55;;;;;;;1999.90;999.90;;;;;;;10.30;76.64;99595.56;10412815;28;20065;-68
2024/03/10 08:46:00;;;;;;;1999.90;999.90;;;;;;;11.05;74.58;99596.84;10413870;28;20045;-68
2024/03/10 08:51:03;;;;;;;1999.90;999.90;;;;;;;11.14;72.73;99593.50;10413821;28;20053;-69
2024/03/10 08:56:07;;;;;;;1999.90;999.90;;;;;;;11.25;71.29;99595.28;10415128;28;20073;-69
2024/03/10 09:01:11;;;;;;;1999.90;999.90;;;;;;;11.07;69.91;99592.31;10421269;28;20554;-69
2024/03/10 09:06:14;;;;;;;1999.90;999.90;;;;;;;11.09;71.41;99593.84;10421687;28;20084;-69
2024/03/10 09:11:17;;;;;;;1999.90;999.90;;;;;;;10.85;70.56;99596.63;10420999;28;20049;-68
2024/03/10 09:16:20;;;;;;;1999.90;999.90;;;;;;;12.21;70.83;99576.09;10421119;28;20072;-69
2024/03/10 09:21:22;;;;;;;1999.90;999.90;;;;;;;11.92;67.40;99590.81;10420845;28;20383;-69
2024/03/10 09:26:25;;;;;;;1999.90;999.90;;;;;;;12.39;66.19;99586.88;10420596;28;20512;-69
2024/03/10 09:31:28;;;;;;;1999.90;999.90;;;;;;;12.88;66.40;99584.47;10420216;28;20505;-69
2024/03/10 09:36:30;;;;;;;1999.90;999.90;;;;;;;14.31;64.77;99570.91;10418794;28;20061;-69
2024/03/10 09:41:33;;;;;;;1999.90;999.90;;;;;;;12.60;65.91;99576.31;10418995;28;20445;-68
2024/03/10 09:46:36;;;;;;;1999.90;999.90;;;;;;;12.60;67.05;99578.94;10419773;28;20453;-69
2024/03/10 09:51:41;;;;;;;1999.90;999.90;;;;;;;12.63;66.98;99572.63;10418708;28;20053;-69
2024/03/10 09:56:48;;;;;;;1999.90;999.90;;;;;;;13.19;66.69;99579.16;10418495;28;20050;-69
2024/03/10 10:01:53;;;;;;;1999.90;999.90;;;;;;;13.93;64.90;99562.09;10419261;28;20076;-69
2024/03/10 10:06:56;;;;;;;1999.90;999.90;;;;;;;14.21;64.29;99547.25;10419185;28;20046;-69
2024/03/10 10:11:59;;;;;;;1999.90;999.90;;;;;;;14.61;63.51;99534.81;10418318;28;20084;-69
2024/03/10 10:17:02;;;;;;;1999.90;999.90;;;;;;;15.65;61.10;99523.06;10401107;28;20049;-69
2024/03/10 10:22:05;;;;;;;1999.90;999.90;;;;;;;16.52;59.71;99495.81;10418297;28;20103;-69
2024/03/10 10:27:09;;;;;;;1999.90;999.90;;;;;;;16.43;57.77;99486.16;10418383;28;20076;-69
2024/03/10 10:32:11;;;;;;;1999.90;999.90;;;;;;;15.38;58.89;99499.28;10418336;28;20103;-69
2024/03/10 10:37:14;;;;;;;1999.90;999.90;;;;;;;16.48;59.80;99481.25;10417596;28;20172;-69
2024/03/10 10:42:16;;;;;;;1999.90;999.90;;;;;;;18.27;56.07;99482.59;10417723;28;20502;-69
2024/03/10 10:47:34;;;;;;;1999.90;999.90;;;;;;;19.79;53.59;99480.47;10416426;28;20045;-69
2024/03/10 10:52:41;;;;;;;1999.90;999.90;;;;;;;18.80;52.46;99485.56;10417240;28;20410;-69
2024/03/10 10:57:46;;;;;;;1999.90;999.90;;;;;;;19.22;52.27;99493.13;10417035;28;20089;-69
2024/03/10 11:03:14;;;;;;;1999.90;999.90;;;;;;;20.51;50.51;99494.97;10415383;28;20524;-69
2024/03/10 11:08:17;;;;;;;1999.90;999.90;;;;;;;17.48;53.63;99487.63;10415418;28;20050;-69
2024/03/10 11:13:22;;;;;;;1999.90;999.90;;;;;;;20.25;51.12;99482.97;10415673;28;20049;-69
2024/03/10 11:18:25;;;;;;;1999.90;999.90;;;;;;;20.95;47.54;99478.16;10414893;28;20562;-69
2024/03/10 11:23:40;;;;;;;1999.90;999.90;;;;;;;18.83;49.47;99503.78;10414000;28;20049;-70
2024/03/10 11:29:06;;;;;;;1999.90;999.90;;;;;;;18.55;50.71;99515.63;10415917;28;20124;-69
2024/03/10 11:34:10;;;;;;;1999.90;999.90;;;;;;;18.14;51.53;99518.41;10414668;28;20132;-69
2024/03/10 11:39:19;;;;;;;1999.90;999.90;;;;;;;17.62;51.75;99505.50;10415377;28;20054;-69
2024/03/10 11:44:23;;;;;;;1999.90;999.90;;;;;;;17.29;54.17;99502.81;10415939;28;20053;-69
2024/03/10 11:49:26;;;;;;;1999.90;999.90;;;;;;;17.06;51.54;99502.59;10414110;28;20049;-69
2024/03/10 11:54:28;;;;;;;1999.90;999.90;;;;;;;16.84;52.28;99501.34;10415222;28;20076;-70
2024/03/10 11:59:31;;;;;;;1999.90;999.90;;;;;;;18.07;52.27;99490.09;10414737;28;20052;-69
2024/03/10 12:04:36;;;;;;;1999.90;999.90;;;;;;;18.92;50.29;99490.31;10413623;28;20099;-70
2024/03/10 12:09:40;;;;;;;1999.90;999.90;;;;;;;19.70;49.77;99481.50;10413536;28;20570;-67
2024/03/10 12:14:43;;;;;;;1999.90;999.90;;;;;;;19.94;48.34;99468.03;10406914;28;20077;-67
2024/03/10 12:19:46;;;;;;;1999.90;999.90;;;;;;;21.26;44.76;99458.41;10414870;28;20046;-68
2024/03/10 12:24:48;;;;;;;1999.90;999.90;;;;;;;18.60;48.42;99456.00;10413231;28;20563;-67
2024/03/10 12:29:53;;;;;;;1999.90;999.90;;;;;;;19.10;48.16;99466.19;10413122;28;20077;-68
2024/03/10 12:34:55;;;;;;;1999.90;999.90;;;;;;;18.35;50.00;99458.75;10421698;28;20053;-68
2024/03/10 12:39:58;;;;;;;1999.90;999.90;;;;;;;18.52;50.65;99465.63;10421973;28;20107;-68
2024/03/10 12:45:01;;;;;;;1999.90;999.90;;;;;;;19.07;49.63;99468.38;10422417;28;20049;-68
2024/03/10 12:50:07;;;;;;;1999.90;999.90;;;;;;;17.06;52.48;99462.94;10422091;28;20125;-68
2024/03/10 12:55:11;;;;;;;1999.90;999.90;;;;;;;17.25;50.76;99459.19;10421889;28;20540;-68
2024/03/10 13:00:23;;;;;;;1999.90;999.90;;;;;;;18.01;51.21;99454.53;10420612;28;20051;-68
2024/03/10 13:05:31;;;;;;;1999.90;999.90;;;;;;;19.15;49.72;99454.22;10421417;28;20049;-67
2024/03/10 13:10:33;;;;;;;1999.90;999.90;;;;;;;18.83;49.36;99459.56;10420718;28;20496;-67
2024/03/10 13:15:40;;;;;;;1999.90;999.90;;;;;;;18.72;50.12;99451.94;10419562;28;20520;-68
2024/03/10 13:20:44;;;;;;;1999.90;999.90;;;;;;;18.49;50.85;99463.34;10419666;28;20053;-68
2024/03/10 13:25:47;;;;;;;1999.90;999.90;;;;;;;17.48;51.51;99461.16;10419213;28;20049;-68
2024/03/10 13:30:50;;;;;;;1999.90;999.90;;;;;;;17.37;52.62;99454.41;10420393;28;20099;-68
2024/03/10 13:35:52;;;;;;;1999.90;999.90;;;;;;;17.17;53.83;99446.78;10420089;28;20518;-68
2024/03/10 13:41:10;;;;;;;1999.90;999.90;;;;;;;16.79;53.83;99445.50;10418349;28;20514;-68
2024/03/10 13:46:13;;;;;;;1999.90;999.90;;;;;;;17.57;53.27;99434.53;10417284;28;20490;-68
2024/03/10 13:51:16;;;;;;;1999.90;999.90;;;;;;;17.18;53.74;99423.78;10418743;28;20084;-68
2024/03/10 13:56:18;;;;;;;1999.90;999.90;;;;;;;16.54;53.75;99421.63;10419415;28;20076;-68
2024/03/10 14:01:21;;;;;;;1999.90;999.90;;;;;;;16.58;54.52;99415.06;10419083;28;20410;-67
2024/03/10 14:06:24;;;;;;;1999.90;999.90;;;;;;;16.57;54.29;99412.59;10417919;28;20053;-67
2024/03/10 14:11:26;;;;;;;1999.90;999.90;;;;;;;16.58;54.91;99416.88;10418413;28;20128;-67
2024/03/10 14:16:29;;;;;;;1999.90;999.90;;;;;;;16.39;55.08;99413.53;10418776;28;20053;-68
2024/03/10 14:21:33;;;;;;;1999.90;999.90;;;;;;;15.94;56.52;99417.28;10418369;28;20050;-68
2024/03/10 14:26:39;;;;;;;1999.90;999.90;;;;;;;16.11;56.88;99411.09;10417828;28;20046;-68
2024/03/10 14:31:41;;;;;;;1999.90;999.90;;;;;;;15.82;56.84;99434.34;10416809;28;20103;-68
2024/03/10 14:36:44;;;;;;;1999.90;999.90;;;;;;;16.09;57.07;99433.34;10416384;28;20065;-68
2024/03/10 14:41:46;;;;;;;1999.90;999.90;;;;;;;15.77;56.78;99425.09;10417484;28;20041;-68
2024/03/10 14:46:48;;;;;;;1999.90;999.90;;;;;;;15.78;57.65;99425.91;10416428;28;20132;-68
2024/03/10 14:51:51;;;;;;;1999.90;999.90;;;;;;;15.45;57.72;99423.00;10415935;28;20042;-68
2024/03/10 14:56:53;;;;;;;1999.90;999.90;;;;;;;15.85;58.25;99420.81;10416870;28;20049;-68
2024/03/10 15:01:56;;;;;;;1999.90;999.90;;;;;;;15.10;58.51;99410.69;10416547;28;20128;-68
2024/03/10 15:06:58;;;;;;;1999.90;999.90;;;;;;;15.02;60.48;99422.78;10416744;28;20410;-68
2024/03/10 15:12:04;;;;;;;1999.90;999.90;;;;;;;14.95;59.90;99431.47;10416274;28;20446;-68
2024/03/10 15:17:07;;;;;;;1999.90;999.90;;;;;;;14.74;60.45;99427.28;10416261;28;20049;-68
2024/03/10 15:22:10;;;;;;;1999.90;999.90;;;;;;;15.68;58.04;99420.69;10414415;28;20049;-67
2024/03/10 15:27:13;;;;;;;1999.90;999.90;;;;;;;16.93;53.95;99425.56;10415719;28;20054;-68
2024/03/10 15:32:15;;;;;;;1999.90;999.90;;;;;;;16.07;55.34;99417.66;10415268;28;20148;-67
2024/03/10 15:37:18;;;;;;;1999.90;999.90;;;;;;;14.50;59.18;99425.19;10414627;28;20053;-68
2024/03/10 15:42:21;;;;;;;1999.90;999.90;;;;;;;14.92;59.80;99431.75;10415002;28;20406;-68
2024/03/10 15:47:23;;;;;;;1999.90;999.90;;;;;;;15.53;58.76;99438.06;10415120;28;20107;-68
2024/03/10 15:52:26;;;;;;;1999.90;999.90;;;;;;;14.42;60.10;99451.41;10414682;28;20053;-68
2024/03/10 15:57:29;;;;;;;1999.90;999.90;;;;;;;14.09;61.30;99441.28;10413374;28;20088;-68
2024/03/10 16:02:33;;;;;;;1999.90;999.90;;;;;;;13.90;62.23;99441.34;10414591;28;20049;-72
2024/03/10 16:07:36;;;;;;;1999.90;999.90;;;;;;;13.83;62.86;99440.25;10413801;28;20104;-67
2024/03/10 16:12:39;;;;;;;1999.90;999.90;;;;;;;13.91;62.74;99449.09;10414386;28;20049;-71
2024/03/10 16:17:41;;;;;;;1999.90;999.90;;;;;;;13.73;63.80;99459.53;10414501;28;20055;-69
2024/03/10 16:22:44;;;;;;;1999.90;999.90;;;;;;;13.33;64.99;99449.16;10396687;28;20119;-71
2024/03/10 16:27:47;;;;;;;1999.90;999.90;;;;;;;13.04;65.98;99455.22;10414144;28;20080;-71
2024/03/10 16:32:50;;;;;;;1999.90;999.90;;;;;;;13.02;65.66;99457.16;10413970;28;20516;-72
2024/03/10 16:37:53;;;;;;;1999.90;999.90;;;;;;;12.84;67.26;99472.75;10413800;28;20567;-71
2024/03/10 16:42:55;;;;;;;1999.90;999.90;;;;;;;12.47;67.92;99506.63;10413596;28;20061;-72
2024/03/10 16:47:58;;;;;;;1999.90;999.90;;;;;;;12.25;67.38;99511.94;10412168;28;20068;-72
2024/03/10 16:53:05;;;;;;;1999.90;999.90;;;;;;;12.02;67.92;99515.63;10413687;28;20058;-71
2024/03/10 16:58:09;;;;;;;1999.90;999.90;;;;;;;12.10;67.37;99517.63;10413481;28;20049;-71
2024/03/10 17:03:14;;;;;;;1999.90;999.90;;;;;;;11.88;68.52;99519.38;10413364;28;20046;-71
2024/03/10 17:08:17;;;;;;;1999.90;999.90;;;;;;;11.50;71.21;99523.38;10413620;28;20121;-71
2024/03/10 17:13:20;;;;;;;1999.90;999.90;;;;;;;11.26;71.93;99523.56;10395667;28;20065;-71
2024/03/10 17:18:22;;;;;;;1999.90;999.90;;;;;;;11.20;72.83;99526.69;10414821;28;20481;-71
2024/03/10 17:23:26;;;;;;;1999.90;999.90;;;;;;;11.19;71.93;99528.47;10420365;28;20104;-71
2024/03/10 17:28:29;;;;;;;1999.90;999.90;;;;;;;11.18;72.14;99534.69;10418957;28;20125;-71
2024/03/10 17:33:31;;;;;;;1999.90;999.90;;;;;;;11.09;73.08;99544.09;10418469;28;20049;-71
2024/03/10 17:38:33;;;;;;;1999.90;999.90;;;;;;;10.70;74.19;99553.31;10418482;28;20049;-71
2024/03/10 17:43:36;;;;;;;1999.90;999.90;;;;;;;10.69;75.70;99560.34;10418587;28;20129;-71
2024/03/10 17:48:40;;;;;;;1999.90;999.90;;;;;;;10.58;76.11;99568.16;10419175;28;20096;-71
2024/03/10 17:53:45;;;;;;;1999.90;999.90;;;;;;;10.40;76.21;99560.75;10419516;28;20049;-71
2024/03/10 17:58:48;;;;;;;1999.90;999.90;;;;;;;10.30;77.34;99572.84;10418893;28;20062;-71
2024/03/10 18:03:51;;;;;;;1999.90;999.90;;;;;;;10.17;77.28;99575.56;10419084;28;20164;-71
2024/03/10 18:08:55;;;;;;;1999.90;999.90;;;;;;;10.25;77.30;99589.84;10418690;28;20537;-71
2024/03/10 18:13:58;;;;;;;1999.90;999.90;;;;;;;10.20;78.17;99600.66;10417316;28;20115;-71
2024/03/10 18:19:00;;;;;;;1999.90;999.90;;;;;;;10.28;77.18;99598.31;10418142;28;20053;-71
2024/03/10 18:24:03;;;;;;;1999.90;999.90;;;;;;;10.25;78.13;99590.69;10417195;28;20053;-71
2024/03/10 18:29:05;;;;;;;1999.90;999.90;;;;;;;9.94;79.76;99603.44;10417463;28;20075;-71
2024/03/10 18:34:10;;;;;;;1999.90;999.90;;;;;;;9.80;81.04;99603.59;10417704;28;20155;-71
2024/03/10 18:39:13;;;;;;;1999.90;999.90;;;;;;;9.78;81.35;99601.09;10416454;28;20081;-71
2024/03/10 18:44:16;;;;;;;1999.90;999.90;;;;;;;9.78;81.84;99600.28;10416150;28;20061;-71
2024/03/10 18:49:19;;;;;;;1999.90;999.90;;;;;;;9.69;82.04;99606.19;10417121;28;20048;-71
2024/03/10 18:54:23;;;;;;;1999.90;999.90;;;;;;;9.48;83.41;99602.41;10477204;22;20048;-72
2024/03/10 18:59:26;;;;;;;1999.90;999.90;;;;;;;9.51;84.28;99595.28;10499262;28;20040;-72
2024/03/10 19:04:28;;;;;;;1999.90;999.90;;;;;;;9.57;84.31;99589.63;10481489;28;20048;-73
2024/03/10 19:09:32;;;;;;;1999.90;999.90;;;;;;;9.46;83.52;99588.63;10498892;28;20044;-72
2024/03/10 19:14:36;;;;;;;1999.90;999.90;;;;;;;9.36;85.63;99577.13;10498288;28;20424;-72
2024/03/10 19:19:38;;;;;;;1999.90;999.90;;;;;;;9.45;85.43;99579.09;10498460;28;20051;-72
2024/03/10 19:24:42;;;;;;;1999.90;999.90;;;;;;;9.40;85.05;99580.38;10498193;28;20127;-72
2024/03/10 19:29:45;;;;;;;1999.90;999.90;;;;;;;9.31;85.89;99574.00;10480879;28;20511;-72
2024/03/10 19:34:48;;;;;;;1999.90;999.90;;;;;;;9.28;86.77;99576.88;10497613;28;20044;-73
2024/03/10 19:39:50;;;;;;;1999.90;999.90;;;;;;;9.26;86.26;99579.59;10480064;28;20041;-72
2024/03/10 19:44:53;;;;;;;1999.90;999.90;;;;;;;9.32;85.16;99578.31;10497283;28;20078;-72
2024/03/10 19:49:56;;;;;;;1999.90;999.90;;;;;;;9.21;86.08;99584.31;10497367;28;20123;-72
2024/03/10 19:54:58;;;;;;;1999.90;999.90;;;;;;;9.10;87.14;99597.28;10496753;28;20056;-72
2024/03/10 20:00:14;;;;;;;1999.90;999.90;;;;;;;9.34;86.23;99591.25;10480404;28;20047;-72
2024/03/10 20:05:17;;;;;;;1999.90;999.90;;;;;;;9.27;84.99;99609.97;10497056;28;20519;-73
2024/03/10 20:10:20;;;;;;;1999.90;999.90;;;;;;;9.16;85.54;99617.72;10497204;28;20548;-72
2024/03/10 20:15:23;;;;;;;1999.90;999.90;;;;;;;9.03;87.90;99611.72;10497332;28;20063;-72
2024/03/10 20:20:26;;;;;;;1999.90;999.90;;;;;;;9.08;88.60;99612.22;10479087;28;20444;-72
2024/03/10 20:25:30;;;;;;;1999.90;999.90;;;;;;;8.95;89.00;99625.28;10478809;28;20493;-72
2024/03/10 20:30:33;;;;;;;1999.90;999.90;;;;;;;8.85;90.85;99625.09;10496319;28;20048;-72
2024/03/10 20:35:36;;;;;;;1999.90;999.90;;;;;;;8.87;90.41;99623.19;10479057;28;20134;-72
2024/03/10 20:40:38;;;;;;;1999.90;999.90;;;;;;;8.78;89.83;99623.84;10478825;28;20047;-73
2024/03/10 20:45:41;;;;;;;1999.90;999.90;;;;;;;8.88;90.87;99626.66;10478630;28;20064;-73
2024/03/10 20:50:51;;;;;;;1999.90;999.90;;;;;;;8.83;89.18;99620.94;10479935;28;20053;-72
2024/03/10 20:55:57;;;;;;;1999.90;999.90;;;;;;;10.05;86.15;99626.16;10485638;28;20048;-72
2024/03/10 21:01:00;;;;;;;1999.90;999.90;;;;;;;9.04;83.82;99637.69;10504185;28;20044;-72
2024/03/10 21:06:03;;;;;;;1999.90;999.90;;;;;;;8.65;90.34;99630.84;10485763;28;20463;-73
2024/03/10 21:11:05;;;;;;;1999.90;999.90;;;;;;;8.59;90.22;99632.09;10504133;28;20098;-73
2024/03/10 21:16:08;;;;;;;1999.90;999.90;;;;;;;8.52;93.20;99642.13;10485939;28;20105;-72
2024/03/10 21:21:11;;;;;;;1999.90;999.90;;;;;;;8.44;93.36;99638.31;10485279;28;20119;-72
2024/03/10 21:26:14;;;;;;;1999.90;999.90;;;;;;;8.48;93.13;99631.97;10502950;28;20128;-72
2024/03/10 21:31:16;;;;;;;1999.90;999.90;;;;;;;8.21;94.26;99630.25;10502459;28;20045;-72
2024/03/10 21:36:19;;;;;;;1999.90;999.90;;;;;;;8.34;95.26;99638.94;10502613;28;20555;-72
2024/03/10 21:41:22;;;;;;;1999.90;999.90;;;;;;;8.36;94.82;99631.00;10502313;28;20050;-72
2024/03/10 21:46:24;;;;;;;1999.90;999.90;;;;;;;8.41;95.73;99630.69;10502438;28;20083;-72
2024/03/10 21:51:27;;;;;;;1999.90;999.90;;;;;;;8.32;95.76;99643.41;10484607;28;20047;-72
2024/03/10 21:56:30;;;;;;;1999.90;999.90;;;;;;;8.38;94.68;99627.34;10501484;28;20084;-72
2024/03/10 22:01:35;;;;;;;1999.90;999.90;;;;;;;8.52;93.44;99633.44;10484134;28;20119;-72
2024/03/10 22:06:40;;;;;;;1999.90;999.90;;;;;;;8.28;96.22;99646.31;10500516;28;20131;-72
2024/03/10 22:11:42;;;;;;;1999.90;999.90;;;;;;;8.17;96.08;99645.25;10501418;28;20044;-72
2024/03/10 22:16:45;;;;;;;1999.90;999.90;;;;;;;8.03;97.32;99647.09;10501317;28;20052;-72
2024/03/10 22:21:47;;;;;;;1999.90;999.90;;;;;;;8.15;96.39;99648.88;10500976;28;20477;-72
2024/03/10 22:26:50;;;;;;;1999.90;999.90;;;;;;;8.06;97.78;99652.94;10483088;28;20382;-72
2024/03/10 22:31:53;;;;;;;1999.90;999.90;;;;;;;8.12;96.25;99649.94;10500227;28;20561;-72
2024/03/10 22:36:55;;;;;;;1999.90;999.90;;;;;;;7.90;97.46;99658.31;10482704;28;20127;-72
2024/03/10 22:41:57;;;;;;;1999.90;999.90;;;;;;;7.88;97.77;99659.34;10500236;28;20076;-72